Tamora, Nebraska
Current Conditions -  °F | °C
As of 5:54 PM on Monday 24 Nov 2014 (Local Time) from KLNK Reporting Station
Clear Clear  
Wind Chill: 23°   Ceiling: Unl
Heat Index: 33°   Visibility: 10mi
Dew Point:   Wind: 14mph
Humidity: 32%   Direction: 310°NW
Pressure: 29.98"   Gusts: NA
Location:  40.8874°N, 97.126°W
Report Text: KLNK 242354Z 31012KT 10SM CLR 01/M14 A2998 RMK AO2 SLP165 T00061144 10039 20006 51042
Loading
Personal Weather Stations






























Interactive Weather Map New forecast layout! Learn more

10-Day Weather Forecast

Advertisements
Track Severe Weather on mobile